sensor_id;sensor_type;location;lat;lon;timestamp;P1;durP1;ratioP1;P2;durP2;ratioP2
7171;SDS011;3627;46.544;14.944;2022-10-17T00:02:09;15.52;;;8.90;;
7171;SDS011;3627;46.544;14.944;2022-10-17T00:04:35;21.10;;;10.07;;
7171;SDS011;3627;46.544;14.944;2022-10-17T00:07:01;16.98;;;9.35;;
7171;SDS011;3627;46.544;14.944;2022-10-17T00:09:28;13.32;;;8.18;;
7171;SDS011;3627;46.544;14.944;2022-10-17T00:11:56;14.07;;;9.32;;
7171;SDS011;3627;46.544;14.944;2022-10-17T00:14:22;20.08;;;9.77;;
7171;SDS011;3627;46.544;14.944;2022-10-17T00:16:48;16.52;;;8.90;;
7171;SDS011;3627;46.544;14.944;2022-10-17T00:19:15;15.45;;;9.55;;
7171;SDS011;3627;46.544;14.944;2022-10-17T00:21:41;16.77;;;9.73;;
7171;SDS011;3627;46.544;14.944;2022-10-17T00:24:08;19.17;;;9.70;;
7171;SDS011;3627;46.544;14.944;2022-10-17T00:26:34;14.85;;;9.32;;
7171;SDS011;3627;46.544;14.944;2022-10-17T00:29:02;13.35;;;7.47;;
7171;SDS011;3627;46.544;14.944;2022-10-17T00:31:28;15.25;;;9.70;;
7171;SDS011;3627;46.544;14.944;2022-10-17T00:33:55;14.15;;;8.38;;
7171;SDS011;3627;46.544;14.944;2022-10-17T00:36:21;17.02;;;9.30;;
7171;SDS011;3627;46.544;14.944;2022-10-17T00:38:49;16.42;;;8.90;;
7171;SDS011;3627;46.544;14.944;2022-10-17T00:41:17;15.95;;;9.57;;
7171;SDS011;3627;46.544;14.944;2022-10-17T00:43:50;15.43;;;8.32;;
7171;SDS011;3627;46.544;14.944;2022-10-17T00:46:18;14.48;;;8.63;;
7171;SDS011;3627;46.544;14.944;2022-10-17T00:48:45;12.00;;;8.38;;
7171;SDS011;3627;46.544;14.944;2022-10-17T00:51:11;21.45;;;10.25;;
7171;SDS011;3627;46.544;14.944;2022-10-17T00:53:38;15.50;;;8.32;;
7171;SDS011;3627;46.544;14.944;2022-10-17T00:56:04;16.65;;;9.88;;
7171;SDS011;3627;46.544;14.944;2022-10-17T00:58:31;18.05;;;8.88;;
7171;SDS011;3627;46.544;14.944;2022-10-17T01:00:58;17.17;;;9.00;;
7171;SDS011;3627;46.544;14.944;2022-10-17T01:03:25;18.58;;;7.97;;
7171;SDS011;3627;46.544;14.944;2022-10-17T01:05:52;16.80;;;8.95;;
7171;SDS011;3627;46.544;14.944;2022-10-17T01:08:19;19.77;;;9.43;;
7171;SDS011;3627;46.544;14.944;2022-10-17T01:10:47;16.30;;;8.90;;
7171;SDS011;3627;46.544;14.944;2022-10-17T01:13:20;14.55;;;8.82;;
7171;SDS011;3627;46.544;14.944;2022-10-17T01:15:50;15.13;;;8.98;;
7171;SDS011;3627;46.544;14.944;2022-10-17T01:18:24;12.82;;;7.40;;
7171;SDS011;3627;46.544;14.944;2022-10-17T01:21:05;10.98;;;8.00;;
7171;SDS011;3627;46.544;14.944;2022-10-17T01:26:21;16.02;;;9.02;;
7171;SDS011;3627;46.544;14.944;2022-10-17T01:28:55;14.05;;;8.60;;
7171;SDS011;3627;46.544;14.944;2022-10-17T01:31:28;12.38;;;8.02;;
7171;SDS011;3627;46.544;14.944;2022-10-17T01:33:58;14.73;;;8.48;;
7171;SDS011;3627;46.544;14.944;2022-10-17T01:36:27;14.88;;;8.32;;
7171;SDS011;3627;46.544;14.944;2022-10-17T01:38:57;15.95;;;9.02;;
7171;SDS011;3627;46.544;14.944;2022-10-17T01:41:26;15.82;;;9.23;;
7171;SDS011;3627;46.544;14.944;2022-10-17T01:43:57;17.58;;;9.13;;
7171;SDS011;3627;46.544;14.944;2022-10-17T01:46:26;15.70;;;9.35;;
7171;SDS011;3627;46.544;14.944;2022-10-17T01:48:55;17.33;;;8.18;;
7171;SDS011;3627;46.544;14.944;2022-10-17T01:51:24;14.88;;;8.63;;
7171;SDS011;3627;46.544;14.944;2022-10-17T01:53:53;15.98;;;8.20;;
7171;SDS011;3627;46.544;14.944;2022-10-17T01:56:22;16.35;;;8.82;;
7171;SDS011;3627;46.544;14.944;2022-10-17T01:58:51;16.83;;;9.30;;
7171;SDS011;3627;46.544;14.944;2022-10-17T02:01:18;14.43;;;8.63;;
7171;SDS011;3627;46.544;14.944;2022-10-17T02:03:46;14.15;;;7.90;;
7171;SDS011;3627;46.544;14.944;2022-10-17T02:06:15;17.30;;;9.23;;
7171;SDS011;3627;46.544;14.944;2022-10-17T02:08:42;17.27;;;8.40;;
7171;SDS011;3627;46.544;14.944;2022-10-17T02:11:10;14.13;;;8.02;;
7171;SDS011;3627;46.544;14.944;2022-10-17T02:13:39;14.00;;;7.70;;
7171;SDS011;3627;46.544;14.944;2022-10-17T02:16:11;13.23;;;8.07;;
7171;SDS011;3627;46.544;14.944;2022-10-17T02:18:46;17.10;;;7.60;;
7171;SDS011;3627;46.544;14.944;2022-10-17T02:21:19;17.80;;;8.23;;
7171;SDS011;3627;46.544;14.944;2022-10-17T02:23:51;20.17;;;9.23;;
7171;SDS011;3627;46.544;14.944;2022-10-17T02:26:20;15.32;;;8.10;;
7171;SDS011;3627;46.544;14.944;2022-10-17T02:28:51;17.40;;;8.57;;
7171;SDS011;3627;46.544;14.944;2022-10-17T02:31:21;16.77;;;8.40;;
7171;SDS011;3627;46.544;14.944;2022-10-17T02:33:49;14.35;;;8.30;;
7171;SDS011;3627;46.544;14.944;2022-10-17T02:36:20;15.60;;;8.68;;
7171;SDS011;3627;46.544;14.944;2022-10-17T02:38:47;11.45;;;7.60;;
7171;SDS011;3627;46.544;14.944;2022-10-17T02:41:16;14.07;;;7.88;;
7171;SDS011;3627;46.544;14.944;2022-10-17T02:43:43;16.25;;;8.15;;
7171;SDS011;3627;46.544;14.944;2022-10-17T02:46:11;15.15;;;8.45;;
7171;SDS011;3627;46.544;14.944;2022-10-17T02:48:45;13.88;;;7.57;;
7171;SDS011;3627;46.544;14.944;2022-10-17T02:51:14;16.15;;;8.35;;
7171;SDS011;3627;46.544;14.944;2022-10-17T02:53:49;16.63;;;8.40;;
7171;SDS011;3627;46.544;14.944;2022-10-17T02:56:19;12.70;;;8.38;;
7171;SDS011;3627;46.544;14.944;2022-10-17T02:58:47;14.98;;;8.07;;
7171;SDS011;3627;46.544;14.944;2022-10-17T03:01:15;13.10;;;8.00;;
7171;SDS011;3627;46.544;14.944;2022-10-17T03:03:41;15.10;;;9.00;;
7171;SDS011;3627;46.544;14.944;2022-10-17T03:06:08;15.27;;;8.07;;
7171;SDS011;3627;46.544;14.944;2022-10-17T03:08:34;16.35;;;9.00;;
7171;SDS011;3627;46.544;14.944;2022-10-17T03:11:02;13.60;;;8.13;;
7171;SDS011;3627;46.544;14.944;2022-10-17T03:13:28;15.90;;;8.55;;
7171;SDS011;3627;46.544;14.944;2022-10-17T03:15:55;14.73;;;8.52;;
7171;SDS011;3627;46.544;14.944;2022-10-17T03:18:21;15.15;;;8.38;;
7171;SDS011;3627;46.544;14.944;2022-10-17T03:20:47;14.32;;;8.15;;
7171;SDS011;3627;46.544;14.944;2022-10-17T03:23:14;13.70;;;7.63;;
7171;SDS011;3627;46.544;14.944;2022-10-17T03:25:40;16.77;;;8.50;;
7171;SDS011;3627;46.544;14.944;2022-10-17T03:28:09;18.38;;;8.57;;
7171;SDS011;3627;46.544;14.944;2022-10-17T03:30:36;21.90;;;10.40;;
7171;SDS011;3627;46.544;14.944;2022-10-17T03:33:03;16.83;;;8.27;;
7171;SDS011;3627;46.544;14.944;2022-10-17T03:35:29;17.35;;;9.48;;
7171;SDS011;3627;46.544;14.944;2022-10-17T03:37:56;16.15;;;9.38;;
7171;SDS011;3627;46.544;14.944;2022-10-17T03:40:22;17.20;;;10.02;;
7171;SDS011;3627;46.544;14.944;2022-10-17T03:42:48;14.52;;;8.80;;
7171;SDS011;3627;46.544;14.944;2022-10-17T03:45:16;18.98;;;9.25;;
7171;SDS011;3627;46.544;14.944;2022-10-17T03:47:42;15.43;;;8.32;;
7171;SDS011;3627;46.544;14.944;2022-10-17T03:50:09;20.13;;;9.85;;
7171;SDS011;3627;46.544;14.944;2022-10-17T03:52:35;15.23;;;8.60;;
7171;SDS011;3627;46.544;14.944;2022-10-17T03:55:02;16.52;;;9.30;;
7171;SDS011;3627;46.544;14.944;2022-10-17T03:57:28;15.00;;;9.20;;
7171;SDS011;3627;46.544;14.944;2022-10-17T03:59:54;19.83;;;9.80;;
7171;SDS011;3627;46.544;14.944;2022-10-17T04:02:22;19.85;;;10.02;;
7171;SDS011;3627;46.544;14.944;2022-10-17T04:04:49;20.05;;;9.32;;
7171;SDS011;3627;46.544;14.944;2022-10-17T04:07:15;16.70;;;9.02;;
7171;SDS011;3627;46.544;14.944;2022-10-17T04:09:41;17.40;;;8.88;;
7171;SDS011;3627;46.544;14.944;2022-10-17T04:12:08;15.05;;;9.02;;
7171;SDS011;3627;46.544;14.944;2022-10-17T04:14:35;17.77;;;9.88;;
7171;SDS011;3627;46.544;14.944;2022-10-17T04:17:01;16.20;;;9.27;;
7171;SDS011;3627;46.544;14.944;2022-10-17T04:19:29;15.70;;;9.45;;
7171;SDS011;3627;46.544;14.944;2022-10-17T04:21:55;17.83;;;9.27;;
7171;SDS011;3627;46.544;14.944;2022-10-17T04:24:22;13.25;;;7.22;;
7171;SDS011;3627;46.544;14.944;2022-10-17T04:26:49;16.85;;;9.32;;
7171;SDS011;3627;46.544;14.944;2022-10-17T04:29:16;15.73;;;8.18;;
7171;SDS011;3627;46.544;14.944;2022-10-17T04:31:42;14.85;;;8.57;;
7171;SDS011;3627;46.544;14.944;2022-10-17T04:34:09;15.93;;;9.27;;
7171;SDS011;3627;46.544;14.944;2022-10-17T04:36:36;15.30;;;8.80;;
7171;SDS011;3627;46.544;14.944;2022-10-17T04:39:03;15.57;;;9.68;;
7171;SDS011;3627;46.544;14.944;2022-10-17T04:41:30;19.95;;;8.63;;
7171;SDS011;3627;46.544;14.944;2022-10-17T04:43:56;15.00;;;8.27;;
7171;SDS011;3627;46.544;14.944;2022-10-17T04:46:23;17.20;;;9.30;;
7171;SDS011;3627;46.544;14.944;2022-10-17T04:48:49;15.75;;;8.73;;
7171;SDS011;3627;46.544;14.944;2022-10-17T04:51:16;15.20;;;8.93;;
7171;SDS011;3627;46.544;14.944;2022-10-17T04:53:44;17.85;;;8.55;;
7171;SDS011;3627;46.544;14.944;2022-10-17T04:56:11;14.07;;;8.77;;
7171;SDS011;3627;46.544;14.944;2022-10-17T04:58:38;15.02;;;8.77;;
7171;SDS011;3627;46.544;14.944;2022-10-17T05:01:05;12.70;;;7.95;;
7171;SDS011;3627;46.544;14.944;2022-10-17T05:03:32;13.48;;;7.35;;
7171;SDS011;3627;46.544;14.944;2022-10-17T05:06:01;14.50;;;7.97;;
7171;SDS011;3627;46.544;14.944;2022-10-17T05:08:28;13.60;;;8.40;;
7171;SDS011;3627;46.544;14.944;2022-10-17T05:10:56;13.15;;;8.60;;
7171;SDS011;3627;46.544;14.944;2022-10-17T05:13:22;11.52;;;8.10;;
7171;SDS011;3627;46.544;14.944;2022-10-17T05:15:49;16.27;;;7.50;;
7171;SDS011;3627;46.544;14.944;2022-10-17T05:18:15;16.40;;;9.18;;
7171;SDS011;3627;46.544;14.944;2022-10-17T05:20:42;13.75;;;8.98;;
7171;SDS011;3627;46.544;14.944;2022-10-17T05:23:08;14.32;;;7.80;;
7171;SDS011;3627;46.544;14.944;2022-10-17T05:25:34;13.98;;;7.63;;
7171;SDS011;3627;46.544;14.944;2022-10-17T05:28:02;14.38;;;7.97;;
7171;SDS011;3627;46.544;14.944;2022-10-17T05:30:28;13.63;;;8.40;;
7171;SDS011;3627;46.544;14.944;2022-10-17T05:32:55;15.80;;;8.43;;
7171;SDS011;3627;46.544;14.944;2022-10-17T05:35:21;12.57;;;7.80;;
7171;SDS011;3627;46.544;14.944;2022-10-17T05:37:48;14.13;;;8.77;;
7171;SDS011;3627;46.544;14.944;2022-10-17T05:40:14;20.50;;;8.85;;
7171;SDS011;3627;46.544;14.944;2022-10-17T05:42:44;19.63;;;8.70;;
7171;SDS011;3627;46.544;14.944;2022-10-17T05:45:12;16.70;;;7.88;;
7171;SDS011;3627;46.544;14.944;2022-10-17T05:47:38;14.02;;;8.65;;
7171;SDS011;3627;46.544;14.944;2022-10-17T05:50:05;15.27;;;7.88;;
7171;SDS011;3627;46.544;14.944;2022-10-17T05:52:32;16.27;;;7.78;;
7171;SDS011;3627;46.544;14.944;2022-10-17T05:54:58;17.63;;;10.20;;
7171;SDS011;3627;46.544;14.944;2022-10-17T05:57:25;18.73;;;9.20;;
7171;SDS011;3627;46.544;14.944;2022-10-17T05:59:51;23.92;;;10.02;;
7171;SDS011;3627;46.544;14.944;2022-10-17T06:02:19;18.42;;;9.32;;
7171;SDS011;3627;46.544;14.944;2022-10-17T06:04:45;17.17;;;8.65;;
7171;SDS011;3627;46.544;14.944;2022-10-17T06:07:14;22.40;;;8.45;;
7171;SDS011;3627;46.544;14.944;2022-10-17T06:09:41;19.77;;;7.80;;
7171;SDS011;3627;46.544;14.944;2022-10-17T06:12:07;18.80;;;9.20;;
7171;SDS011;3627;46.544;14.944;2022-10-17T06:14:34;16.02;;;8.82;;
7171;SDS011;3627;46.544;14.944;2022-10-17T06:17:00;18.83;;;11.30;;
7171;SDS011;3627;46.544;14.944;2022-10-17T06:19:28;22.00;;;10.90;;
7171;SDS011;3627;46.544;14.944;2022-10-17T06:21:54;16.25;;;9.85;;
7171;SDS011;3627;46.544;14.944;2022-10-17T06:24:21;19.85;;;10.57;;
7171;SDS011;3627;46.544;14.944;2022-10-17T06:26:47;25.85;;;12.23;;
7171;SDS011;3627;46.544;14.944;2022-10-17T06:29:15;19.73;;;10.90;;
7171;SDS011;3627;46.544;14.944;2022-10-17T06:31:41;19.63;;;11.88;;
7171;SDS011;3627;46.544;14.944;2022-10-17T06:34:08;21.02;;;10.80;;
7171;SDS011;3627;46.544;14.944;2022-10-17T06:36:35;21.05;;;11.40;;
7171;SDS011;3627;46.544;14.944;2022-10-17T06:39:02;22.38;;;10.43;;
7171;SDS011;3627;46.544;14.944;2022-10-17T06:41:28;21.02;;;10.27;;
7171;SDS011;3627;46.544;14.944;2022-10-17T06:43:55;21.30;;;9.52;;
7171;SDS011;3627;46.544;14.944;2022-10-17T06:46:21;21.67;;;9.77;;
7171;SDS011;3627;46.544;14.944;2022-10-17T06:48:50;24.83;;;11.20;;
7171;SDS011;3627;46.544;14.944;2022-10-17T06:51:17;21.17;;;10.80;;
7171;SDS011;3627;46.544;14.944;2022-10-17T06:53:44;20.10;;;10.13;;
7171;SDS011;3627;46.544;14.944;2022-10-17T06:56:11;19.73;;;9.30;;
7171;SDS011;3627;46.544;14.944;2022-10-17T06:58:37;20.95;;;10.88;;
7171;SDS011;3627;46.544;14.944;2022-10-17T07:01:05;16.60;;;8.60;;
7171;SDS011;3627;46.544;14.944;2022-10-17T07:03:31;16.00;;;10.30;;
7171;SDS011;3627;46.544;14.944;2022-10-17T07:05:58;17.77;;;10.32;;
7171;SDS011;3627;46.544;14.944;2022-10-17T07:08:25;19.05;;;10.30;;
7171;SDS011;3627;46.544;14.944;2022-10-17T07:10:53;20.73;;;9.57;;
7171;SDS011;3627;46.544;14.944;2022-10-17T07:13:19;21.45;;;11.77;;
7171;SDS011;3627;46.544;14.944;2022-10-17T07:15:46;17.90;;;9.52;;
7171;SDS011;3627;46.544;14.944;2022-10-17T07:18:12;14.93;;;10.32;;
7171;SDS011;3627;46.544;14.944;2022-10-17T07:20:39;17.88;;;9.50;;
7171;SDS011;3627;46.544;14.944;2022-10-17T07:23:06;15.52;;;8.75;;
7171;SDS011;3627;46.544;14.944;2022-10-17T07:25:32;17.98;;;8.75;;
7171;SDS011;3627;46.544;14.944;2022-10-17T07:28:00;16.60;;;10.02;;
7171;SDS011;3627;46.544;14.944;2022-10-17T07:30:28;20.75;;;10.73;;
7171;SDS011;3627;46.544;14.944;2022-10-17T07:32:54;15.90;;;8.05;;
7171;SDS011;3627;46.544;14.944;2022-10-17T07:35:20;16.23;;;10.18;;
7171;SDS011;3627;46.544;14.944;2022-10-17T07:37:47;17.63;;;8.02;;
7171;SDS011;3627;46.544;14.944;2022-10-17T07:40:13;16.17;;;8.80;;
7171;SDS011;3627;46.544;14.944;2022-10-17T07:42:40;15.35;;;8.07;;
7171;SDS011;3627;46.544;14.944;2022-10-17T07:45:08;14.20;;;8.38;;
7171;SDS011;3627;46.544;14.944;2022-10-17T07:47:34;13.32;;;8.25;;
7171;SDS011;3627;46.544;14.944;2022-10-17T07:50:01;12.82;;;6.88;;
7171;SDS011;3627;46.544;14.944;2022-10-17T07:52:27;12.13;;;8.05;;
7171;SDS011;3627;46.544;14.944;2022-10-17T07:54:54;15.55;;;9.15;;
7171;SDS011;3627;46.544;14.944;2022-10-17T07:57:20;10.60;;;6.88;;
7171;SDS011;3627;46.544;14.944;2022-10-17T07:59:46;11.35;;;6.93;;
7171;SDS011;3627;46.544;14.944;2022-10-17T08:02:17;11.65;;;6.35;;
7171;SDS011;3627;46.544;14.944;2022-10-17T08:04:45;10.45;;;6.57;;
7171;SDS011;3627;46.544;14.944;2022-10-17T08:07:12;11.18;;;6.55;;
7171;SDS011;3627;46.544;14.944;2022-10-17T08:09:40;12.30;;;7.30;;
7171;SDS011;3627;46.544;14.944;2022-10-17T08:12:06;10.55;;;7.22;;
7171;SDS011;3627;46.544;14.944;2022-10-17T08:14:33;10.82;;;6.10;;
7171;SDS011;3627;46.544;14.944;2022-10-17T08:16:59;9.75;;;5.50;;
7171;SDS011;3627;46.544;14.944;2022-10-17T08:19:27;7.45;;;4.97;;
7171;SDS011;3627;46.544;14.944;2022-10-17T08:21:54;7.80;;;5.18;;
7171;SDS011;3627;46.544;14.944;2022-10-17T08:24:21;7.53;;;5.05;;
7171;SDS011;3627;46.544;14.944;2022-10-17T08:26:47;8.00;;;5.03;;
7171;SDS011;3627;46.544;14.944;2022-10-17T08:29:14;7.57;;;5.40;;
7171;SDS011;3627;46.544;14.944;2022-10-17T08:31:41;8.13;;;5.47;;
7171;SDS011;3627;46.544;14.944;2022-10-17T08:34:07;9.20;;;5.65;;
7171;SDS011;3627;46.544;14.944;2022-10-17T08:36:35;8.65;;;5.50;;
7171;SDS011;3627;46.544;14.944;2022-10-17T08:39:02;9.15;;;5.38;;
7171;SDS011;3627;46.544;14.944;2022-10-17T08:41:37;7.93;;;5.32;;
7171;SDS011;3627;46.544;14.944;2022-10-17T08:44:08;12.15;;;7.70;;
7171;SDS011;3627;46.544;14.944;2022-10-17T08:46:36;8.95;;;6.03;;
7171;SDS011;3627;46.544;14.944;2022-10-17T08:49:05;8.32;;;6.40;;
7171;SDS011;3627;46.544;14.944;2022-10-17T08:51:38;8.40;;;5.47;;
7171;SDS011;3627;46.544;14.944;2022-10-17T08:54:08;8.02;;;5.38;;
7171;SDS011;3627;46.544;14.944;2022-10-17T08:56:37;7.30;;;5.40;;
7171;SDS011;3627;46.544;14.944;2022-10-17T08:59:05;7.22;;;5.50;;
7171;SDS011;3627;46.544;14.944;2022-10-17T09:01:38;8.25;;;5.00;;
7171;SDS011;3627;46.544;14.944;2022-10-17T09:06:56;6.13;;;4.38;;
7171;SDS011;3627;46.544;14.944;2022-10-17T09:09:27;6.65;;;3.95;;
7171;SDS011;3627;46.544;14.944;2022-10-17T09:11:58;7.15;;;5.05;;
7171;SDS011;3627;46.544;14.944;2022-10-17T09:14:33;6.38;;;4.57;;
7171;SDS011;3627;46.544;14.944;2022-10-17T09:17:07;4.85;;;4.25;;
7171;SDS011;3627;46.544;14.944;2022-10-17T09:19:38;5.22;;;4.40;;
7171;SDS011;3627;46.544;14.944;2022-10-17T09:22:08;6.30;;;4.68;;
7171;SDS011;3627;46.544;14.944;2022-10-17T09:24:37;6.95;;;4.63;;
7171;SDS011;3627;46.544;14.944;2022-10-17T09:27:05;5.75;;;4.72;;
7171;SDS011;3627;46.544;14.944;2022-10-17T09:29:36;5.15;;;4.20;;
7171;SDS011;3627;46.544;14.944;2022-10-17T09:32:03;6.88;;;5.32;;
7171;SDS011;3627;46.544;14.944;2022-10-17T09:34:33;6.25;;;4.78;;
7171;SDS011;3627;46.544;14.944;2022-10-17T09:37:00;6.78;;;5.47;;
7171;SDS011;3627;46.544;14.944;2022-10-17T09:39:29;7.70;;;5.25;;
7171;SDS011;3627;46.544;14.944;2022-10-17T09:41:56;7.63;;;5.13;;
7171;SDS011;3627;46.544;14.944;2022-10-17T09:44:24;7.03;;;5.57;;
7171;SDS011;3627;46.544;14.944;2022-10-17T09:46:55;6.70;;;5.20;;
7171;SDS011;3627;46.544;14.944;2022-10-17T09:49:27;6.63;;;4.90;;
7171;SDS011;3627;46.544;14.944;2022-10-17T09:51:56;10.75;;;5.35;;
7171;SDS011;3627;46.544;14.944;2022-10-17T09:54:24;7.07;;;5.53;;
7171;SDS011;3627;46.544;14.944;2022-10-17T09:56:59;6.28;;;4.88;;
7171;SDS011;3627;46.544;14.944;2022-10-17T09:59:29;8.10;;;6.10;;
7171;SDS011;3627;46.544;14.944;2022-10-17T10:02:03;6.47;;;5.13;;
7171;SDS011;3627;46.544;14.944;2022-10-17T10:04:32;8.57;;;5.55;;
7171;SDS011;3627;46.544;14.944;2022-10-17T10:07:02;9.73;;;6.07;;
7171;SDS011;3627;46.544;14.944;2022-10-17T10:09:29;7.80;;;5.68;;
7171;SDS011;3627;46.544;14.944;2022-10-17T10:11:56;7.60;;;5.90;;
7171;SDS011;3627;46.544;14.944;2022-10-17T10:14:27;8.68;;;6.28;;
7171;SDS011;3627;46.544;14.944;2022-10-17T10:16:54;8.57;;;5.65;;
7171;SDS011;3627;46.544;14.944;2022-10-17T10:19:25;7.45;;;5.13;;
7171;SDS011;3627;46.544;14.944;2022-10-17T10:21:53;8.63;;;6.05;;
7171;SDS011;3627;46.544;14.944;2022-10-17T10:24:20;8.38;;;5.97;;
7171;SDS011;3627;46.544;14.944;2022-10-17T10:26:49;7.20;;;5.53;;
7171;SDS011;3627;46.544;14.944;2022-10-17T10:29:19;8.93;;;5.53;;
7171;SDS011;3627;46.544;14.944;2022-10-17T10:31:47;7.10;;;5.43;;
7171;SDS011;3627;46.544;14.944;2022-10-17T10:34:16;8.55;;;6.07;;
7171;SDS011;3627;46.544;14.944;2022-10-17T10:36:44;8.52;;;6.47;;
7171;SDS011;3627;46.544;14.944;2022-10-17T10:39:16;9.05;;;5.90;;
7171;SDS011;3627;46.544;14.944;2022-10-17T10:41:45;8.45;;;5.88;;
7171;SDS011;3627;46.544;14.944;2022-10-17T10:44:12;7.38;;;5.78;;
7171;SDS011;3627;46.544;14.944;2022-10-17T10:46:40;9.50;;;5.78;;
7171;SDS011;3627;46.544;14.944;2022-10-17T10:49:25;9.75;;;6.43;;
7171;SDS011;3627;46.544;14.944;2022-10-17T10:51:53;8.38;;;6.18;;
7171;SDS011;3627;46.544;14.944;2022-10-17T10:54:21;8.18;;;5.70;;
7171;SDS011;3627;46.544;14.944;2022-10-17T10:56:49;10.10;;;6.90;;
7171;SDS011;3627;46.544;14.944;2022-10-17T10:59:18;9.85;;;6.07;;
7171;SDS011;3627;46.544;14.944;2022-10-17T11:01:47;7.88;;;5.70;;
7171;SDS011;3627;46.544;14.944;2022-10-17T11:04:18;8.02;;;5.55;;
7171;SDS011;3627;46.544;14.944;2022-10-17T11:06:46;9.95;;;6.03;;
7171;SDS011;3627;46.544;14.944;2022-10-17T11:09:17;9.98;;;6.15;;
7171;SDS011;3627;46.544;14.944;2022-10-17T11:11:48;9.80;;;6.15;;
7171;SDS011;3627;46.544;14.944;2022-10-17T11:14:20;7.97;;;5.57;;
7171;SDS011;3627;46.544;14.944;2022-10-17T11:16:49;9.15;;;5.88;;
7171;SDS011;3627;46.544;14.944;2022-10-17T11:19:22;9.15;;;5.88;;
7171;SDS011;3627;46.544;14.944;2022-10-17T11:21:54;8.43;;;5.65;;
7171;SDS011;3627;46.544;14.944;2022-10-17T11:24:22;7.85;;;5.43;;
7171;SDS011;3627;46.544;14.944;2022-10-17T11:26:52;7.40;;;5.10;;
7171;SDS011;3627;46.544;14.944;2022-10-17T11:29:19;9.18;;;6.38;;
7171;SDS011;3627;46.544;14.944;2022-10-17T11:31:47;10.07;;;5.18;;
7171;SDS011;3627;46.544;14.944;2022-10-17T11:34:15;7.70;;;5.43;;
7171;SDS011;3627;46.544;14.944;2022-10-17T11:36:46;7.45;;;5.68;;
7171;SDS011;3627;46.544;14.944;2022-10-17T11:39:15;11.25;;;6.28;;
7171;SDS011;3627;46.544;14.944;2022-10-17T11:41:43;8.82;;;6.00;;
7171;SDS011;3627;46.544;14.944;2022-10-17T11:44:14;9.50;;;5.72;;
7171;SDS011;3627;46.544;14.944;2022-10-17T11:46:43;7.30;;;5.43;;
7171;SDS011;3627;46.544;14.944;2022-10-17T11:49:14;9.98;;;6.50;;
7171;SDS011;3627;46.544;14.944;2022-10-17T11:51:42;8.13;;;5.55;;
7171;SDS011;3627;46.544;14.944;2022-10-17T11:54:12;9.85;;;6.55;;
7171;SDS011;3627;46.544;14.944;2022-10-17T11:56:41;11.35;;;7.03;;
7171;SDS011;3627;46.544;14.944;2022-10-17T11:59:14;11.00;;;7.13;;
7171;SDS011;3627;46.544;14.944;2022-10-17T12:01:43;9.75;;;5.82;;
7171;SDS011;3627;46.544;14.944;2022-10-17T12:04:16;8.13;;;5.78;;
7171;SDS011;3627;46.544;14.944;2022-10-17T12:06:55;10.60;;;6.05;;
7171;SDS011;3627;46.544;14.944;2022-10-17T12:09:31;12.30;;;7.32;;
7171;SDS011;3627;46.544;14.944;2022-10-17T12:12:01;10.10;;;6.63;;
7171;SDS011;3627;46.544;14.944;2022-10-17T12:14:38;10.02;;;6.38;;
7171;SDS011;3627;46.544;14.944;2022-10-17T12:17:05;9.32;;;6.65;;
7171;SDS011;3627;46.544;14.944;2022-10-17T12:19:46;10.65;;;6.63;;
7171;SDS011;3627;46.544;14.944;2022-10-17T12:22:19;10.18;;;6.30;;
7171;SDS011;3627;46.544;14.944;2022-10-17T12:27:36;8.45;;;6.15;;
7171;SDS011;3627;46.544;14.944;2022-10-17T12:30:04;11.68;;;6.63;;
7171;SDS011;3627;46.544;14.944;2022-10-17T12:32:31;8.50;;;6.22;;
7171;SDS011;3627;46.544;14.944;2022-10-17T12:34:57;8.20;;;5.93;;
7171;SDS011;3627;46.544;14.944;2022-10-17T12:42:51;10.70;;;6.47;;
7171;SDS011;3627;46.544;14.944;2022-10-17T12:48:04;10.25;;;6.85;;
7171;SDS011;3627;46.544;14.944;2022-10-17T12:53:15;8.60;;;5.75;;
7171;SDS011;3627;46.544;14.944;2022-10-17T12:55:43;9.77;;;5.97;;
7171;SDS011;3627;46.544;14.944;2022-10-17T12:58:11;10.45;;;7.05;;
7171;SDS011;3627;46.544;14.944;2022-10-17T13:00:41;9.02;;;6.15;;
7171;SDS011;3627;46.544;14.944;2022-10-17T13:03:10;10.02;;;6.65;;
7171;SDS011;3627;46.544;14.944;2022-10-17T13:05:40;9.88;;;6.80;;
7171;SDS011;3627;46.544;14.944;2022-10-17T13:08:07;10.65;;;6.97;;
7171;SDS011;3627;46.544;14.944;2022-10-17T13:10:39;9.68;;;6.63;;
7171;SDS011;3627;46.544;14.944;2022-10-17T13:13:09;9.90;;;6.57;;
7171;SDS011;3627;46.544;14.944;2022-10-17T13:15:38;9.15;;;6.43;;
7171;SDS011;3627;46.544;14.944;2022-10-17T13:18:04;11.02;;;6.82;;
7171;SDS011;3627;46.544;14.944;2022-10-17T13:20:31;10.75;;;6.63;;
7171;SDS011;3627;46.544;14.944;2022-10-17T13:22:57;9.52;;;6.03;;
7171;SDS011;3627;46.544;14.944;2022-10-17T13:25:24;10.05;;;6.57;;
7171;SDS011;3627;46.544;14.944;2022-10-17T13:27:58;13.02;;;6.40;;
7171;SDS011;3627;46.544;14.944;2022-10-17T13:30:28;10.68;;;6.25;;
7171;SDS011;3627;46.544;14.944;2022-10-17T13:32:56;10.02;;;6.32;;
7171;SDS011;3627;46.544;14.944;2022-10-17T13:35:24;10.88;;;6.63;;
7171;SDS011;3627;46.544;14.944;2022-10-17T13:37:51;12.15;;;7.10;;
7171;SDS011;3627;46.544;14.944;2022-10-17T13:40:20;11.23;;;6.90;;
7171;SDS011;3627;46.544;14.944;2022-10-17T13:42:47;9.05;;;6.30;;
7171;SDS011;3627;46.544;14.944;2022-10-17T13:45:16;11.60;;;6.95;;
7171;SDS011;3627;46.544;14.944;2022-10-17T13:47:43;9.68;;;6.30;;
7171;SDS011;3627;46.544;14.944;2022-10-17T13:50:18;9.35;;;5.95;;
7171;SDS011;3627;46.544;14.944;2022-10-17T13:52:45;10.88;;;5.80;;
7171;SDS011;3627;46.544;14.944;2022-10-17T13:55:13;10.82;;;6.72;;
7171;SDS011;3627;46.544;14.944;2022-10-17T13:57:41;8.63;;;6.53;;
7171;SDS011;3627;46.544;14.944;2022-10-17T14:00:10;9.02;;;6.18;;
7171;SDS011;3627;46.544;14.944;2022-10-17T14:02:40;9.30;;;6.25;;
7171;SDS011;3627;46.544;14.944;2022-10-17T14:05:09;9.80;;;6.57;;
7171;SDS011;3627;46.544;14.944;2022-10-17T14:07:38;8.82;;;5.75;;
7171;SDS011;3627;46.544;14.944;2022-10-17T14:10:06;10.13;;;6.90;;
7171;SDS011;3627;46.544;14.944;2022-10-17T14:12:42;9.60;;;6.38;;
7171;SDS011;3627;46.544;14.944;2022-10-17T14:15:11;10.55;;;6.38;;
7171;SDS011;3627;46.544;14.944;2022-10-17T14:17:38;10.45;;;6.72;;
7171;SDS011;3627;46.544;14.944;2022-10-17T14:20:05;8.98;;;6.15;;
7171;SDS011;3627;46.544;14.944;2022-10-17T14:22:32;10.90;;;7.35;;
7171;SDS011;3627;46.544;14.944;2022-10-17T14:25:00;11.57;;;6.72;;
7171;SDS011;3627;46.544;14.944;2022-10-17T14:27:28;12.07;;;7.18;;
7171;SDS011;3627;46.544;14.944;2022-10-17T14:29:56;10.10;;;6.70;;
7171;SDS011;3627;46.544;14.944;2022-10-17T14:32:24;12.18;;;7.03;;
7171;SDS011;3627;46.544;14.944;2022-10-17T14:34:51;13.23;;;6.30;;
7171;SDS011;3627;46.544;14.944;2022-10-17T14:37:23;11.52;;;6.75;;
7171;SDS011;3627;46.544;14.944;2022-10-17T14:39:52;10.63;;;6.68;;
7171;SDS011;3627;46.544;14.944;2022-10-17T14:42:20;11.45;;;7.45;;
7171;SDS011;3627;46.544;14.944;2022-10-17T14:44:48;11.68;;;6.97;;
7171;SDS011;3627;46.544;14.944;2022-10-17T14:47:16;13.43;;;7.05;;
7171;SDS011;3627;46.544;14.944;2022-10-17T14:49:47;10.30;;;7.30;;
7171;SDS011;3627;46.544;14.944;2022-10-17T14:52:27;8.95;;;7.07;;
7171;SDS011;3627;46.544;14.944;2022-10-17T14:54:54;10.43;;;6.60;;
7171;SDS011;3627;46.544;14.944;2022-10-17T14:57:24;10.68;;;7.13;;
7171;SDS011;3627;46.544;14.944;2022-10-17T14:59:51;12.70;;;7.57;;
7171;SDS011;3627;46.544;14.944;2022-10-17T15:02:18;16.40;;;7.35;;
7171;SDS011;3627;46.544;14.944;2022-10-17T15:04:45;12.35;;;7.03;;
7171;SDS011;3627;46.544;14.944;2022-10-17T15:07:12;11.95;;;6.80;;
7171;SDS011;3627;46.544;14.944;2022-10-17T15:09:39;10.80;;;7.38;;
7171;SDS011;3627;46.544;14.944;2022-10-17T15:12:05;13.07;;;7.25;;
7171;SDS011;3627;46.544;14.944;2022-10-17T15:14:34;9.40;;;6.75;;
7171;SDS011;3627;46.544;14.944;2022-10-17T15:17:00;12.38;;;7.22;;